Huvudsida
METAR-TAF:

METAR-TAF

Flygplatser :

Viterbo, Italien

latitud: 42-26N, longitud: 012-03E, höjd: 300 m

Aktuellt väderrapport

Denna rapport gjordes för 5 timmar och 4 minuter sedan, klockan 17:55 UTC
Temperatur 11°C
Fuktighet 94%
Tryck 1009 hPa
Sikt 10 km eller mer
Spridda moln på en höjd av 2400 ft
Få moln på en höjd av 3000 ft, Cumulonimbus.

METAR: LIRV 111755Z /////KT 9999 SCT024 FEW030CB 11/10 Q1009

Tid: 23:59 (22:59 UTC)

Väderprognos

Denna rapport gjordes för 8 timmar och 59 minuter sedan, klockan 14:00 UTC
Prognos gäller från 11 kl. 15 UTC till 11 kl. 24 UTC
Vind 8 kt från ost
Sikt 10 km eller mer
Få moln på en höjd av 1500 ft
Spridda moln på en höjd av 3000 ft
Temporärt
från 11 kl. 15 UTC till 11 kl. 19 UTC
Sikt: 5000 m
Få moln på en höjd av 2000 ft, Cumulonimbus.
Spridda moln på en höjd av 3000 ft
regnskurar, fuktdis

TAF: LIRV 111400Z 1115/1124 08008KT 9999 FEW015 SCT030 TEMPO 1115/1119 5000 SHRA BR FEW020CB SCT030

Aktuella väderrapporter och prognoser från 4000 flygplatser (METAR- och TAF-rapporter).

De tillgängliga stationerna syns som gula och röda prickar på kartan.

För musen över prickarna för att se namnen på stationerna.

Klicka sedan för att få väderrapporter och prognoser.

För att ändra kartan: Klicka på de gröna knapparna med ett svart kors på för att zooma in; den gröna knappen med ett streck på för att zooma ut; eller på de gröna pilarna för angränsande kartor.


METAR-TAF: